createdAt,value
2018-09-22T00:00:04.093Z,3.47
2018-09-22T00:02:32.546Z,3.77
2018-09-22T00:05:01.030Z,2.87
2018-09-22T00:07:29.492Z,3.00
2018-09-22T00:09:58.053Z,3.33
2018-09-22T00:12:26.612Z,3.30
2018-09-22T00:14:55.090Z,3.70
2018-09-22T00:17:23.582Z,3.30
2018-09-22T00:19:52.661Z,3.97
2018-09-22T00:22:21.089Z,3.30
2018-09-22T00:24:49.712Z,3.67
2018-09-22T00:27:18.771Z,3.83
2018-09-22T00:29:47.404Z,3.70
2018-09-22T00:32:15.870Z,3.80
2018-09-22T00:34:44.274Z,3.83
2018-09-22T00:37:12.786Z,3.77
2018-09-22T00:39:42.067Z,3.50
2018-09-22T00:42:10.620Z,4.53
2018-09-22T00:44:39.637Z,4.07
2018-09-22T00:47:08.066Z,4.53
2018-09-22T00:49:36.854Z,3.70
2018-09-22T00:52:05.276Z,4.17
2018-09-22T00:54:33.703Z,4.30
2018-09-22T00:57:02.380Z,3.80
2018-09-22T00:59:30.814Z,4.00
2018-09-22T01:01:59.350Z,4.20
2018-09-22T01:04:27.792Z,3.47
2018-09-22T01:06:56.209Z,4.20
2018-09-22T01:09:24.650Z,3.80
2018-09-22T01:11:53.253Z,3.80
2018-09-22T01:14:21.739Z,4.00
2018-09-22T01:16:50.156Z,3.70
2018-09-22T01:19:18.642Z,3.90
2018-09-22T01:21:47.681Z,4.17
2018-09-22T01:24:16.187Z,4.77
2018-09-22T01:26:44.632Z,3.77
2018-09-22T01:29:15.284Z,4.37
2018-09-22T01:31:44.894Z,4.17
2018-09-22T01:34:13.373Z,4.00
2018-09-22T01:36:42.610Z,4.53
2018-09-22T01:39:11.964Z,4.30
2018-09-22T01:41:41.176Z,4.53
2018-09-22T01:44:10.317Z,4.50
2018-09-22T01:46:38.767Z,3.97
2018-09-22T01:49:07.215Z,4.97
2018-09-22T01:51:35.656Z,4.53
2018-09-22T01:54:04.103Z,3.80
2018-09-22T01:56:33.354Z,4.70
2018-09-22T01:59:01.882Z,4.57
2018-09-22T02:01:30.420Z,4.10
2018-09-22T02:03:58.867Z,4.30
2018-09-22T02:06:27.314Z,4.57
2018-09-22T02:08:55.728Z,4.87
2018-09-22T02:11:24.209Z,5.00
2018-09-22T02:13:52.681Z,4.50
2018-09-22T02:16:21.121Z,4.43
2018-09-22T02:18:50.167Z,4.53
2018-09-22T02:21:18.567Z,4.23
2018-09-22T02:23:47.844Z,4.30
2018-09-22T02:26:16.246Z,3.83
2018-09-22T02:28:44.877Z,4.23
2018-09-22T02:31:13.308Z,4.20
2018-09-22T02:33:41.861Z,4.10
2018-09-22T02:36:10.396Z,4.93
2018-09-22T02:38:39.643Z,4.43
2018-09-22T02:41:08.218Z,4.17
2018-09-22T02:43:37.352Z,4.63
2018-09-22T02:46:06.253Z,4.30
2018-09-22T02:48:34.660Z,4.53
2018-09-22T02:51:03.152Z,4.47
2018-09-22T02:53:31.624Z,4.60
2018-09-22T02:56:00.100Z,4.90
2018-09-22T02:58:28.573Z,5.20
2018-09-22T03:00:56.990Z,5.37
2018-09-22T03:03:25.434Z,5.47
2018-09-22T03:05:53.851Z,5.10
2018-09-22T03:08:22.964Z,6.67
2018-09-22T03:10:51.429Z,6.17
2018-09-22T03:13:21.281Z,6.83
2018-09-22T03:15:49.726Z,7.13
2018-09-22T03:18:18.246Z,7.20
2018-09-22T03:20:47.560Z,7.50
2018-09-22T03:23:16.027Z,7.53
2018-09-22T03:25:45.074Z,7.20
2018-09-22T03:28:13.524Z,8.40
2018-09-22T03:30:42.049Z,7.63
2018-09-22T03:33:10.482Z,7.63
2018-09-22T03:35:39.003Z,8.27
2018-09-22T03:38:07.424Z,7.27
2018-09-22T03:40:36.044Z,7.70
2018-09-22T03:43:05.193Z,7.43
2018-09-22T03:45:33.778Z,7.97
2018-09-22T03:48:02.222Z,7.57
2018-09-22T03:50:30.653Z,7.20
2018-09-22T03:52:59.138Z,7.40
2018-09-22T03:55:27.554Z,9.23
2018-09-22T03:57:56.018Z,7.73
2018-09-22T04:00:24.466Z,8.17
2018-09-22T04:02:52.928Z,7.40
2018-09-22T04:05:21.345Z,7.23
2018-09-22T04:07:49.795Z,7.20
2018-09-22T04:10:18.245Z,6.87
2018-09-22T04:12:46.767Z,7.40
2018-09-22T04:15:21.884Z,6.40
2018-09-22T04:17:50.318Z,6.57
2018-09-22T04:20:18.804Z,6.53
2018-09-22T04:22:47.363Z,6.47
2018-09-22T04:25:15.781Z,6.17
2018-09-22T04:27:44.231Z,6.67
2018-09-22T04:30:12.881Z,5.93
2018-09-22T04:32:41.320Z,5.80
2018-09-22T04:35:10.063Z,6.93
2018-09-22T04:37:38.492Z,6.30
2018-09-22T04:40:07.084Z,6.53
2018-09-22T04:42:35.542Z,6.30
2018-09-22T04:45:03.969Z,6.10
2018-09-22T04:47:39.097Z,6.63
2018-09-22T04:50:07.555Z,5.20
2018-09-22T04:52:36.611Z,6.63
2018-09-22T04:55:05.628Z,5.73
2018-09-22T04:57:34.304Z,5.10
2018-09-22T05:00:02.890Z,5.20
2018-09-22T05:02:31.378Z,5.30
2018-09-22T05:05:00.384Z,5.33
2018-09-22T05:07:28.835Z,5.10
2018-09-22T05:09:57.297Z,5.13
2018-09-22T05:12:25.903Z,4.73
2018-09-22T05:14:54.845Z,4.73
2018-09-22T05:17:23.733Z,5.00
2018-09-22T05:19:52.949Z,4.13
2018-09-22T05:22:22.005Z,4.50
2018-09-22T05:24:50.514Z,4.30
2018-09-22T05:27:20.067Z,4.07
2018-09-22T05:29:48.567Z,4.63
2018-09-22T05:32:17.104Z,4.00
2018-09-22T05:34:46.289Z,3.73
2018-09-22T05:37:14.714Z,3.80
2018-09-22T05:39:43.224Z,3.60
2018-09-22T05:42:11.683Z,4.03
2018-09-22T05:44:40.678Z,4.37
2018-09-22T05:47:09.126Z,3.57
2018-09-22T05:49:37.583Z,3.70
2018-09-22T05:52:06.080Z,3.13
2018-09-22T05:54:34.515Z,4.20
2018-09-22T05:57:03.149Z,4.40
2018-09-22T05:59:31.605Z,3.87
2018-09-22T06:02:00.124Z,3.83
2018-09-22T06:04:28.612Z,3.93
2018-09-22T06:06:58.013Z,3.57
2018-09-22T06:09:26.517Z,4.90
2018-09-22T06:11:54.903Z,4.50
2018-09-22T06:14:23.401Z,3.97
2018-09-22T06:16:51.838Z,4.10
2018-09-22T06:19:20.933Z,4.90
2018-09-22T06:21:49.426Z,3.87
2018-09-22T06:24:17.967Z,4.00
2018-09-22T06:26:46.696Z,5.10
2018-09-22T06:29:15.203Z,3.60
2018-09-22T06:31:43.802Z,4.17
2018-09-22T06:34:12.267Z,3.73
2018-09-22T06:36:40.735Z,3.70
2018-09-22T06:39:10.397Z,4.77
2018-09-22T06:41:39.596Z,3.20
2018-09-22T06:44:08.454Z,3.90
2018-09-22T06:46:36.940Z,4.23
2018-09-22T06:49:05.395Z,3.47
2018-09-22T06:51:33.824Z,4.60
2018-09-22T06:54:03.162Z,3.73
2018-09-22T06:56:31.616Z,3.57
2018-09-22T06:59:00.637Z,3.37
2018-09-22T07:01:29.100Z,3.70
2018-09-22T07:03:57.611Z,3.90
2018-09-22T07:06:26.855Z,3.50
2018-09-22T07:08:55.401Z,4.03
2018-09-22T07:11:23.872Z,3.30
2018-09-22T07:13:52.397Z,3.00
2018-09-22T07:16:20.813Z,3.73
2018-09-22T07:18:49.274Z,3.53
2018-09-22T07:21:22.151Z,3.40
2018-09-22T07:23:50.688Z,3.40
2018-09-22T07:26:19.193Z,3.23
2018-09-22T07:28:47.667Z,3.10
2018-09-22T07:31:16.232Z,3.00
2018-09-22T07:33:45.548Z,3.03
2018-09-22T07:36:14.052Z,3.27
2018-09-22T07:38:43.106Z,3.10
2018-09-22T07:41:13.871Z,3.43
2018-09-22T07:43:42.390Z,3.47
2018-09-22T07:46:11.633Z,3.30
2018-09-22T07:48:40.144Z,3.10
2018-09-22T07:51:08.590Z,3.00
2018-09-22T07:53:37.737Z,3.37
2018-09-22T07:56:06.207Z,3.03
2018-09-22T07:58:34.911Z,3.03
2018-09-22T08:01:03.347Z,3.10
2018-09-22T08:03:31.788Z,2.80
2018-09-22T08:06:00.356Z,2.77
2018-09-22T08:08:29.681Z,2.67
2018-09-22T08:10:58.170Z,2.63
2018-09-22T08:13:26.665Z,3.33
2018-09-22T08:15:55.205Z,3.63
2018-09-22T08:18:23.639Z,2.93
2018-09-22T08:20:52.111Z,2.90
2018-09-22T08:23:21.213Z,3.07
2018-09-22T08:25:49.625Z,2.83
2018-09-22T08:28:18.077Z,3.10
2018-09-22T08:30:46.482Z,3.07
2018-09-22T08:33:15.039Z,2.97
2018-09-22T08:35:43.578Z,3.50
2018-09-22T08:38:12.043Z,3.40
2018-09-22T08:40:40.502Z,3.27
2018-09-22T08:43:09.114Z,3.37
2018-09-22T08:45:37.664Z,3.70
2018-09-22T08:48:06.312Z,3.13
2018-09-22T08:50:34.858Z,3.20
2018-09-22T08:53:03.333Z,2.83
2018-09-22T08:55:32.021Z,3.20
2018-09-22T08:58:00.584Z,4.30
2018-09-22T09:00:29.160Z,3.13
2018-09-22T09:02:57.614Z,2.83
2018-09-22T09:05:26.195Z,3.00
2018-09-22T09:07:54.693Z,3.17
2018-09-22T09:10:24.368Z,3.20
2018-09-22T09:12:52.996Z,3.67
2018-09-22T09:15:21.522Z,3.03
2018-09-22T09:17:50.111Z,3.47
2018-09-22T09:20:18.564Z,3.23
2018-09-22T09:22:47.157Z,3.33
2018-09-22T09:25:16.289Z,3.90
2018-09-22T09:27:45.569Z,3.50
2018-09-22T09:30:14.022Z,3.73
2018-09-22T09:32:42.502Z,3.10
2018-09-22T09:35:10.976Z,3.20
2018-09-22T09:37:39.610Z,3.47
2018-09-22T09:40:08.073Z,2.87
2018-09-22T09:42:37.347Z,3.20
2018-09-22T09:45:05.944Z,3.43
2018-09-22T09:47:34.954Z,3.00
2018-09-22T09:50:03.439Z,3.07
2018-09-22T09:52:31.871Z,3.13
2018-09-22T09:55:00.467Z,3.00
2018-09-22T09:57:29.005Z,2.70
2018-09-22T09:59:57.546Z,3.00
2018-09-22T10:02:27.334Z,3.23
2018-09-22T10:04:56.073Z,2.80
2018-09-22T10:07:24.497Z,2.77
2018-09-22T10:09:53.001Z,3.57
2018-09-22T10:12:21.531Z,3.60
2018-09-22T10:14:50.039Z,3.67
2018-09-22T10:17:18.515Z,3.03
2018-09-22T10:19:47.062Z,2.57
2018-09-22T10:22:15.556Z,2.90
2018-09-22T10:24:44.083Z,3.03
2018-09-22T10:27:12.556Z,3.30
2018-09-22T10:29:41.034Z,3.07
2018-09-22T10:32:09.554Z,3.10
2018-09-22T10:34:38.515Z,3.13
2018-09-22T10:37:07.462Z,2.83
2018-09-22T10:39:36.006Z,3.07
2018-09-22T10:42:04.537Z,3.20
2018-09-22T10:44:33.149Z,2.93
2018-09-22T10:47:01.716Z,2.40
2018-09-22T10:49:30.188Z,2.97
2018-09-22T10:51:58.646Z,2.80
2018-09-22T10:54:27.117Z,2.67
2018-09-22T10:56:55.979Z,3.10
2018-09-22T10:59:24.500Z,2.50
2018-09-22T11:01:52.980Z,2.47
2018-09-22T11:04:21.457Z,2.50
2018-09-22T11:06:49.979Z,2.43
2018-09-22T11:09:18.500Z,2.13
2018-09-22T11:11:46.977Z,2.50
2018-09-22T11:14:15.495Z,3.00
2018-09-22T11:16:44.823Z,2.30
2018-09-22T11:19:13.345Z,2.20
2018-09-22T11:21:41.824Z,2.30
2018-09-22T11:24:10.818Z,2.57
2018-09-22T11:26:39.343Z,2.13
2018-09-22T11:29:08.095Z,2.30
2018-09-22T11:31:36.543Z,2.07
2018-09-22T11:34:05.212Z,1.80
2018-09-22T11:36:33.702Z,2.00
2018-09-22T11:39:02.244Z,2.00
2018-09-22T11:41:30.767Z,2.67
2018-09-22T11:43:59.297Z,2.20
2018-09-22T11:46:27.858Z,2.40
2018-09-22T11:48:56.394Z,2.50
2018-09-22T11:51:24.992Z,2.10
2018-09-22T11:53:53.632Z,2.40
2018-09-22T11:56:22.215Z,1.90
2018-09-22T11:58:51.162Z,2.33
2018-09-22T12:01:19.594Z,2.20
2018-09-22T12:03:48.116Z,2.03
2018-09-22T12:06:16.635Z,1.83
2018-09-22T12:08:45.121Z,2.30
2018-09-22T12:11:13.589Z,2.47
2018-09-22T12:13:42.216Z,2.03
2018-09-22T12:16:10.647Z,2.03
2018-09-22T12:18:39.747Z,2.33
2018-09-22T12:21:08.245Z,2.33
2018-09-22T12:23:37.003Z,2.50
2018-09-22T12:26:06.111Z,2.17
2018-09-22T12:28:34.593Z,2.00
2018-09-22T12:31:03.076Z,2.47
2018-09-22T12:33:31.671Z,2.80
2018-09-22T12:36:00.520Z,2.30
2018-09-22T12:38:29.057Z,2.30
2018-09-22T12:40:57.565Z,2.27
2018-09-22T12:43:26.040Z,2.20
2018-09-22T12:45:54.505Z,2.40
2018-09-22T12:48:22.977Z,2.43
2018-09-22T12:50:51.633Z,2.23
2018-09-22T12:53:20.781Z,1.97
2018-09-22T12:55:49.778Z,2.10
2018-09-22T12:58:18.239Z,2.30
2018-09-22T13:00:46.683Z,1.97
2018-09-22T13:03:15.117Z,2.50
2018-09-22T13:05:43.852Z,2.10
2018-09-22T13:08:12.335Z,2.10
2018-09-22T13:10:40.768Z,2.00
2018-09-22T13:13:09.315Z,2.87
2018-09-22T13:15:37.834Z,2.30
2018-09-22T13:18:06.445Z,2.47
2018-09-22T13:20:34.951Z,2.17
2018-09-22T13:23:03.513Z,2.00
2018-09-22T13:25:31.982Z,2.57
2018-09-22T13:28:01.167Z,1.53
2018-09-22T13:30:29.813Z,1.90
2018-09-22T13:32:58.237Z,2.10
2018-09-22T13:35:26.677Z,2.40
2018-09-22T13:37:55.139Z,2.33
2018-09-22T13:40:23.803Z,1.87
2018-09-22T13:42:52.251Z,2.27
2018-09-22T13:45:22.081Z,2.20
2018-09-22T13:47:50.539Z,1.87
2018-09-22T13:50:19.010Z,2.30
2018-09-22T13:52:47.545Z,2.20
2018-09-22T13:55:16.094Z,2.30
2018-09-22T13:57:44.671Z,2.20
2018-09-22T14:00:13.693Z,2.60
2018-09-22T14:02:42.164Z,2.10
2018-09-22T14:05:10.636Z,2.10
2018-09-22T14:07:39.166Z,2.30
2018-09-22T14:10:07.671Z,2.60
2018-09-22T14:12:36.135Z,2.37
2018-09-22T14:15:04.651Z,1.97
2018-09-22T14:17:33.206Z,2.10
2018-09-22T14:20:01.685Z,2.43
2018-09-22T14:22:30.231Z,1.90
2018-09-22T14:24:58.712Z,2.20
2018-09-22T14:27:27.354Z,2.40
2018-09-22T14:29:55.942Z,2.10
2018-09-22T14:32:25.749Z,2.23
2018-09-22T14:34:54.241Z,2.40
2018-09-22T14:37:23.355Z,2.80
2018-09-22T14:39:51.828Z,2.13
2018-09-22T14:42:20.290Z,2.60
2018-09-22T14:44:48.754Z,2.60
2018-09-22T14:47:17.266Z,2.13
2018-09-22T14:49:46.477Z,2.03
2018-09-22T14:52:15.037Z,2.20
2018-09-22T14:54:43.666Z,2.03
2018-09-22T14:57:12.179Z,2.20
2018-09-22T14:59:40.774Z,2.33
2018-09-22T15:02:09.212Z,1.70
2018-09-22T15:04:37.688Z,1.90
2018-09-22T15:07:06.167Z,2.13
2018-09-22T15:09:35.401Z,1.80
2018-09-22T15:12:03.842Z,1.80
2018-09-22T15:14:32.405Z,2.20
2018-09-22T15:17:01.011Z,2.40
2018-09-22T15:19:31.372Z,2.53
2018-09-22T15:21:59.854Z,2.40
2018-09-22T15:24:28.330Z,2.47
2018-09-22T15:26:58.054Z,2.27
2018-09-22T15:29:26.568Z,2.60
2018-09-22T15:31:55.065Z,2.73
2018-09-22T15:34:24.399Z,2.80
2018-09-22T15:36:52.947Z,2.60
2018-09-22T15:39:21.906Z,3.07
2018-09-22T15:41:50.506Z,3.20
2018-09-22T15:44:19.078Z,3.17
2018-09-22T15:46:47.542Z,3.17
2018-09-22T15:49:16.090Z,2.80
2018-09-22T15:51:45.624Z,3.10
2018-09-22T15:54:14.133Z,3.20
2018-09-22T15:56:42.600Z,3.73
2018-09-22T15:59:11.272Z,3.93
2018-09-22T16:01:39.804Z,4.03
2018-09-22T16:04:08.336Z,3.77
2018-09-22T16:06:36.994Z,3.80
2018-09-22T16:09:07.705Z,3.77
2018-09-22T16:11:36.156Z,4.00
2018-09-22T16:14:04.828Z,4.20
2018-09-22T16:16:33.313Z,4.03
2018-09-22T16:19:02.196Z,4.70
2018-09-22T16:21:31.113Z,4.70
2018-09-22T16:23:59.860Z,4.53
2018-09-22T16:26:28.369Z,5.10
2018-09-22T16:28:56.943Z,4.80
2018-09-22T16:31:25.458Z,4.30
2018-09-22T16:33:53.928Z,4.87
2018-09-22T16:36:22.443Z,4.50
2018-09-22T16:38:50.908Z,4.50
2018-09-22T16:41:19.461Z,4.77
2018-09-22T16:43:47.923Z,4.80
2018-09-22T16:46:16.404Z,5.03
2018-09-22T16:48:45.730Z,5.77
2018-09-22T16:51:15.120Z,5.17
2018-09-22T16:53:43.577Z,5.90
2018-09-22T16:56:12.115Z,5.93
2018-09-22T16:58:40.612Z,5.70
2018-09-22T17:01:09.150Z,5.63
2018-09-22T17:03:37.633Z,5.57
2018-09-22T17:06:06.347Z,6.10
2018-09-22T17:08:34.810Z,6.17
2018-09-22T17:11:03.418Z,7.03
2018-09-22T17:13:31.993Z,6.90
2018-09-22T17:16:00.521Z,6.57
2018-09-22T17:18:29.197Z,6.73
2018-09-22T17:20:57.691Z,7.10
2018-09-22T17:23:26.189Z,6.90
2018-09-22T17:25:54.774Z,6.77
2018-09-22T17:28:23.563Z,7.00
2018-09-22T17:30:52.989Z,7.20
2018-09-22T17:33:21.485Z,7.17
2018-09-22T17:35:50.054Z,7.70
2018-09-22T17:38:18.574Z,7.77
2018-09-22T17:40:47.215Z,8.53
2018-09-22T17:43:16.464Z,8.53
2018-09-22T17:45:44.905Z,7.97
2018-09-22T17:48:13.395Z,8.60
2018-09-22T17:50:41.959Z,7.93
2018-09-22T17:53:11.153Z,8.50
2018-09-22T17:55:39.670Z,9.17
2018-09-22T17:58:08.161Z,9.27
2018-09-22T18:00:36.687Z,9.03
2018-09-22T18:03:05.184Z,9.30
2018-09-22T18:05:33.932Z,9.17
2018-09-22T18:08:02.654Z,9.30
2018-09-22T18:10:31.719Z,9.73
2018-09-22T18:13:00.267Z,9.80
2018-09-22T18:15:29.228Z,10.23
2018-09-22T18:17:58.436Z,9.70
2018-09-22T18:20:26.970Z,9.30
2018-09-22T18:22:55.403Z,10.37
2018-09-22T18:25:24.003Z,9.80
2018-09-22T18:27:52.459Z,10.17
2018-09-22T18:30:21.089Z,10.20
2018-09-22T18:32:49.946Z,10.80
2018-09-22T18:35:18.570Z,10.20
2018-09-22T18:37:47.017Z,11.30
2018-09-22T18:40:15.529Z,12.13
2018-09-22T18:42:43.943Z,10.80
2018-09-22T18:45:12.499Z,11.77
2018-09-22T18:47:40.964Z,11.93
2018-09-22T18:50:10.296Z,11.50
2018-09-22T18:52:39.296Z,11.03
2018-09-22T18:55:07.716Z,11.33
2018-09-22T18:57:36.663Z,11.03
2018-09-22T19:00:05.216Z,10.90
2018-09-22T19:02:33.763Z,10.03
2018-09-22T19:05:02.221Z,11.03
2018-09-22T19:07:30.798Z,10.57
2018-09-22T19:09:59.314Z,11.03
2018-09-22T19:12:28.090Z,9.80
2018-09-22T19:15:15.266Z,10.07
2018-09-22T19:17:51.229Z,10.53
2018-09-22T19:20:26.720Z,11.13
2018-09-22T19:22:58.859Z,10.70
2018-09-22T19:25:29.765Z,11.27
2018-09-22T19:28:04.302Z,11.80
2018-09-22T19:30:37.820Z,11.43
2018-09-22T19:33:12.596Z,11.43
2018-09-22T19:35:45.770Z,9.67
2018-09-22T19:38:18.332Z,10.80
2018-09-22T19:40:58.475Z,10.43
2018-09-22T19:43:32.713Z,11.10
2018-09-22T19:46:12.360Z,10.20
2018-09-22T19:48:44.076Z,10.00
2018-09-22T19:51:15.150Z,10.97
2018-09-22T19:53:44.114Z,10.70
2018-09-22T19:56:12.615Z,10.53
2018-09-22T19:58:41.546Z,11.80
2018-09-22T20:01:10.098Z,11.13
2018-09-22T20:03:38.594Z,11.77
2018-09-22T20:06:07.803Z,13.03
2018-09-22T20:08:36.401Z,13.23
2018-09-22T20:11:05.227Z,12.83
2018-09-22T20:13:33.716Z,12.90
2018-09-22T20:16:03.140Z,13.83
2018-09-22T20:18:32.173Z,13.93
2018-09-22T20:21:00.625Z,13.23
2018-09-22T20:23:29.181Z,14.33
2018-09-22T20:25:57.678Z,13.67
2018-09-22T20:28:26.655Z,14.10
2018-09-22T20:30:55.195Z,14.53
2018-09-22T20:33:23.811Z,14.17
2018-09-22T20:35:53.080Z,14.37
2018-09-22T20:38:21.575Z,14.27
2018-09-22T20:40:50.057Z,14.00
2018-09-22T20:43:18.601Z,14.53
2018-09-22T20:45:47.046Z,14.40
2018-09-22T20:48:15.515Z,14.07
2018-09-22T20:50:44.248Z,14.50
2018-09-22T20:53:12.740Z,13.53
2018-09-22T20:55:41.305Z,14.80
2018-09-22T20:58:10.455Z,14.90
2018-09-22T21:00:39.014Z,15.00
2018-09-22T21:03:07.447Z,14.93
2018-09-22T21:05:36.662Z,13.73
2018-09-22T21:08:05.716Z,14.10
2018-09-22T21:10:34.210Z,14.43
2018-09-22T21:13:02.715Z,14.33
2018-09-22T21:15:31.240Z,13.97
2018-09-22T21:17:59.745Z,14.87
2018-09-22T21:20:28.343Z,14.43
2018-09-22T21:22:56.947Z,15.63
2018-09-22T21:25:25.520Z,14.60
2018-09-22T21:27:54.025Z,14.47
2018-09-22T21:30:23.230Z,13.77
2018-09-22T21:32:52.309Z,13.60
2018-09-22T21:35:20.774Z,14.17
2018-09-22T21:37:49.370Z,14.13
2018-09-22T21:40:18.078Z,14.67
2018-09-22T21:42:46.576Z,13.57
2018-09-22T21:45:15.068Z,14.40
2018-09-22T21:47:43.567Z,13.97
2018-09-22T21:50:12.087Z,14.07
2018-09-22T21:52:40.674Z,13.03
2018-09-22T21:55:09.915Z,13.50
2018-09-22T21:57:38.482Z,14.10
2018-09-22T22:00:07.065Z,13.60
2018-09-22T22:02:36.052Z,13.70
2018-09-22T22:05:04.571Z,13.53
2018-09-22T22:07:33.055Z,14.00
2018-09-22T22:10:01.529Z,13.67
2018-09-22T22:12:30.629Z,13.60
2018-09-22T22:14:59.865Z,14.07
2018-09-22T22:17:28.347Z,14.17
2018-09-22T22:19:56.848Z,13.77
2018-09-22T22:22:25.316Z,14.70
2018-09-22T22:24:53.874Z,14.07
2018-09-22T22:27:23.551Z,15.03
2018-09-22T22:29:52.035Z,16.50
2018-09-22T22:32:20.522Z,15.40
2018-09-22T22:34:49.058Z,15.43
2018-09-22T22:37:17.671Z,16.57
2018-09-22T22:39:46.280Z,17.13
2018-09-22T22:42:14.784Z,17.77
2018-09-22T22:44:43.864Z,18.23
2018-09-22T22:47:12.400Z,18.73
2018-09-22T22:49:40.893Z,18.93
2018-09-22T22:52:09.355Z,19.60
2018-09-22T22:54:37.801Z,21.37
2018-09-22T22:57:06.365Z,21.03
2018-09-22T22:59:35.666Z,22.10
2018-09-22T23:02:04.226Z,21.77
2018-09-22T23:04:32.819Z,22.47
2018-09-22T23:07:01.299Z,23.27
2018-09-22T23:09:29.817Z,25.87
2018-09-22T23:11:58.368Z,25.63
2018-09-22T23:14:26.868Z,27.27
2018-09-22T23:16:55.315Z,27.73
2018-09-22T23:19:23.753Z,29.27
2018-09-22T23:21:52.979Z,29.90
2018-09-22T23:24:22.215Z,29.00
2018-09-22T23:26:50.789Z,30.57
2018-09-22T23:29:19.459Z,28.07
2018-09-22T23:31:47.953Z,29.27
2018-09-22T23:34:17.218Z,29.43
2018-09-22T23:36:45.715Z,28.60
2018-09-22T23:39:14.855Z,29.93
2018-09-22T23:41:43.598Z,30.63
2018-09-22T23:44:12.065Z,29.60
2018-09-22T23:46:40.554Z,28.80
2018-09-22T23:49:09.408Z,28.17
2018-09-22T23:51:38.096Z,30.00
2018-09-22T23:54:06.535Z,29.50
2018-09-22T23:56:35.006Z,29.37
2018-09-22T23:59:03.505Z,27.40
